Time;durP1;ratioP1;P1;durP2;ratioP2;P2;SDS_P1;SDS_P2;PMS_P1;PMS_P2;Temp;Humidity;BMP_temperature;BMP_pressure;BME280_temperature;BME280_humidity;BME280_pressure;Samples;Min_cycle;Max_cycle;Signal;HPM_P1;HPM_P2
2021/12/06 00:02:19;;;;;;;23.00;8.98;;;0.70;99.90;;;;;;5067796;28;20041;-62
2021/12/06 00:04:48;;;;;;;27.75;9.55;;;0.70;99.90;;;;;;5066355;28;20468;-64
2021/12/06 00:07:19;;;;;;;32.92;11.30;;;0.80;99.90;;;;;;5066809;28;20495;-63
2021/12/06 00:09:47;;;;;;;28.85;10.93;;;0.80;99.90;;;;;;5066132;28;20045;-62
2021/12/06 00:12:16;;;;;;;26.20;11.20;;;0.80;99.90;;;;;;5051424;28;20044;-64
2021/12/06 00:14:44;;;;;;;28.30;11.05;;;0.80;99.90;;;;;;5067726;28;20524;-64
2021/12/06 00:17:16;;;;;;;30.30;11.00;;;0.90;99.90;;;;;;5068134;28;20048;-63
2021/12/06 00:19:44;;;;;;;24.92;10.50;;;0.90;99.90;;;;;;5067401;28;20408;-64
2021/12/06 00:22:22;;;;;;;19.40;9.60;;;0.90;99.90;;;;;;5051041;28;20618;-63
2021/12/06 00:24:54;;;;;;;37.10;12.15;;;1.00;99.90;;;;;;5066379;28;20048;-62
2021/12/06 00:27:23;;;;;;;29.40;10.85;;;1.00;99.90;;;;;;5047956;28;20049;-64
2021/12/06 00:29:52;;;;;;;30.77;9.85;;;0.90;99.90;;;;;;5046568;28;20052;-64
2021/12/06 00:32:20;;;;;;;24.85;9.18;;;0.90;99.90;;;;;;5053089;28;20040;-62
2021/12/06 00:34:48;;;;;;;23.50;9.27;;;1.00;99.90;;;;;;5066820;28;20036;-64
2021/12/06 00:39:52;;;;;;;28.85;10.57;;;1.00;99.90;;;;;;5067298;28;20516;-62
2021/12/06 00:42:22;;;;;;;29.17;9.80;;;1.00;99.90;;;;;;5061864;28;20052;-62
2021/12/06 00:44:51;;;;;;;27.23;10.80;;;1.00;99.90;;;;;;5067230;28;20052;-63
2021/12/06 00:47:20;;;;;;;26.95;10.20;;;1.00;99.90;;;;;;5067784;28;20044;-62
2021/12/06 00:49:50;;;;;;;24.23;8.98;;;1.00;99.90;;;;;;5065566;28;20037;-62
2021/12/06 00:52:19;;;;;;;26.85;10.02;;;1.00;99.90;;;;;;5067786;28;20290;-64
2021/12/06 00:54:48;;;;;;;;;;;0.90;99.90;;;;;;5066365;28;20048;-62
2021/12/06 00:57:16;;;;;;;32.67;9.65;;;0.90;99.90;;;;;;5057875;28;19931;-62
2021/12/06 00:59:45;;;;;;;27.02;10.25;;;0.90;99.90;;;;;;5067549;28;20052;-62
2021/12/06 01:02:14;;;;;;;29.23;10.37;;;0.90;99.90;;;;;;5048030;28;20484;-62
2021/12/06 01:04:44;;;;;;;;;;;0.90;99.90;;;;;;5064263;28;20494;-64
2021/12/06 01:07:12;;;;;;;21.33;8.37;;;0.90;99.90;;;;;;5065237;28;20370;-62
2021/12/06 01:09:40;;;;;;;17.10;9.02;;;0.90;99.90;;;;;;5067110;28;20691;-63
2021/12/06 01:12:09;;;;;;;37.25;9.65;;;0.90;99.90;;;;;;5065488;28;20040;-64
2021/12/06 01:14:37;;;;;;;26.10;9.67;;;0.90;99.90;;;;;;5049445;28;20504;-62
2021/12/06 01:17:07;;;;;;;26.00;10.23;;;0.90;99.90;;;;;;5068904;28;20048;-67
2021/12/06 01:19:37;;;;;;;22.27;9.82;;;0.90;99.90;;;;;;5069675;28;20049;-66
2021/12/06 01:24:53;;;;;;;;;;;0.90;99.90;;;;;;5070184;28;20040;-66
2021/12/06 01:40:21;;;;;;;24.10;8.95;;;1.00;99.90;;;;;;5069149;28;20055;-70
2021/12/06 01:42:50;;;;;;;16.15;8.93;;;1.00;99.90;;;;;;5051704;28;21201;-70
2021/12/06 01:45:18;;;;;;;20.00;8.00;;;1.00;99.90;;;;;;5069478;28;20045;-67
2021/12/06 01:47:49;;;;;;;23.88;8.32;;;0.90;99.90;;;;;;5069326;28;20040;-69
2021/12/06 01:50:25;;;;;;;24.70;9.13;;;0.90;99.90;;;;;;5069133;28;20484;-69
2021/12/06 01:52:58;;;;;;;24.83;8.52;;;0.80;99.90;;;;;;5053021;28;20044;-71
2021/12/06 01:55:30;;;;;;;18.90;9.27;;;0.80;99.90;;;;;;5069614;28;20044;-69
2021/12/06 01:57:59;;;;;;;17.75;8.52;;;0.70;99.90;;;;;;5070277;28;20051;-70
2021/12/06 02:00:33;;;;;;;26.90;9.07;;;0.70;99.90;;;;;;5069937;28;20506;-67
2021/12/06 02:03:08;;;;;;;28.67;9.85;;;0.70;99.90;;;;;;5052286;28;20037;-63
2021/12/06 02:05:42;;;;;;;34.15;9.55;;;0.70;99.90;;;;;;5049434;28;20040;-65
2021/12/06 02:08:15;;;;;;;28.77;9.85;;;0.70;99.90;;;;;;5099278;28;20060;-63
2021/12/06 02:10:46;;;;;;;29.20;9.98;;;0.70;99.90;;;;;;5066592;28;20044;-63
2021/12/06 02:13:20;;;;;;;20.50;9.20;;;0.80;99.90;;;;;;5038865;28;20420;-62
2021/12/06 02:15:52;;;;;;;20.00;9.13;;;0.80;99.90;;;;;;5069490;28;20480;-65
2021/12/06 02:21:31;;;;;;;20.30;8.60;;;0.80;99.90;;;;;;5051851;28;20049;-63
2021/12/06 02:24:02;;;;;;;27.30;8.77;;;0.80;99.90;;;;;;5068515;28;20041;-63
2021/12/06 02:26:32;;;;;;;19.95;9.30;;;0.80;99.90;;;;;;5060860;28;20033;-62
2021/12/06 02:29:03;;;;;;;22.85;8.20;;;0.90;99.90;;;;;;5049115;28;20043;-65
2021/12/06 02:31:32;;;;;;;18.77;7.40;;;0.80;99.90;;;;;;5062547;28;20041;-62
2021/12/06 02:33:59;;;;;;;17.67;7.97;;;0.80;99.90;;;;;;5059210;28;20041;-62
2021/12/06 02:36:28;;;;;;;28.25;9.82;;;0.90;99.90;;;;;;5071870;28;20044;-62
2021/12/06 02:38:57;;;;;;;19.60;9.85;;;0.80;99.90;;;;;;5071396;28;20033;-63
2021/12/06 02:41:27;;;;;;;27.00;10.10;;;0.80;99.90;;;;;;5052735;28;20056;-62
2021/12/06 02:43:55;;;;;;;22.33;8.90;;;0.90;99.90;;;;;;5071870;28;20036;-63
2021/12/06 02:46:24;;;;;;;25.33;8.98;;;0.90;99.90;;;;;;5069960;28;20048;-64
2021/12/06 02:48:53;;;;;;;22.77;9.32;;;0.90;99.90;;;;;;5071455;28;20048;-62
2021/12/06 02:51:21;;;;;;;19.67;9.00;;;0.90;99.90;;;;;;5055082;28;20064;-62
2021/12/06 02:53:49;;;;;;;17.08;9.23;;;0.90;99.90;;;;;;5073124;28;20041;-62
2021/12/06 02:56:29;;;;;;;22.40;7.75;;;0.90;99.90;;;;;;5071440;28;20503;-63
2021/12/06 02:59:05;;;;;;;25.48;8.27;;;0.90;99.90;;;;;;5050629;28;20045;-63
2021/12/06 03:01:45;;;;;;;27.48;9.30;;;0.90;99.90;;;;;;5035511;28;20072;-62
2021/12/06 03:04:14;;;;;;;24.88;8.40;;;0.80;99.90;;;;;;5059871;28;20045;-63
2021/12/06 03:06:42;;;;;;;21.50;8.43;;;0.80;99.90;;;;;;5051026;28;20052;-63
2021/12/06 03:09:19;;;;;;;19.08;7.53;;;0.70;99.90;;;;;;5051604;28;20045;-64
2021/12/06 03:11:52;;;;;;;27.13;8.38;;;0.70;99.90;;;;;;5062162;28;20036;-63
2021/12/06 03:14:28;;;;;;;23.08;8.07;;;0.60;99.90;;;;;;5071144;28;20051;-63
2021/12/06 03:17:01;;;;;;;26.88;7.15;;;0.60;99.90;;;;;;5071567;28;20048;-63
2021/12/06 03:19:29;;;;;;;23.88;8.70;;;0.60;99.90;;;;;;5071158;28;20060;-64
2021/12/06 03:21:57;;;;;;;21.77;7.70;;;0.60;99.90;;;;;;5070614;28;20049;-63
2021/12/06 03:24:26;;;;;;;20.63;8.43;;;0.60;99.90;;;;;;5072005;28;20048;-62
2021/12/06 03:26:54;;;;;;;27.08;9.68;;;0.60;99.90;;;;;;5071343;28;20037;-61
2021/12/06 03:29:23;;;;;;;26.58;8.90;;;0.60;99.90;;;;;;5071318;28;20377;-64
2021/12/06 03:31:52;;;;;;;16.98;8.52;;;0.60;99.90;;;;;;5054220;28;20048;-62
2021/12/06 03:34:26;;;;;;;22.23;9.45;;;0.70;99.90;;;;;;5070780;28;20048;-63
2021/12/06 03:37:00;;;;;;;25.25;9.32;;;0.70;99.90;;;;;;5071138;28;20476;-61
2021/12/06 03:39:38;;;;;;;20.15;8.90;;;0.70;99.90;;;;;;5053751;28;20049;-62
2021/12/06 03:42:17;;;;;;;21.10;9.02;;;0.80;99.90;;;;;;5070936;28;20048;-63
2021/12/06 03:44:46;;;;;;;21.10;9.40;;;0.80;99.90;;;;;;5070998;28;20040;-63
2021/12/06 03:47:21;;;;;;;24.23;10.60;;;0.90;99.90;;;;;;5070665;28;20400;-62
2021/12/06 03:49:49;;;;;;;29.13;10.82;;;0.90;99.90;;;;;;5067279;28;20044;-62
2021/12/06 03:52:17;;;;;;;27.90;10.70;;;0.90;99.90;;;;;;5070691;28;20044;-63
2021/12/06 03:54:49;;;;;;;21.60;10.63;;;1.00;99.90;;;;;;5070311;28;20484;-63
2021/12/06 03:57:20;;;;;;;23.15;9.60;;;1.00;99.90;;;;;;5070796;28;20499;-63
2021/12/06 03:59:49;;;;;;;21.58;8.82;;;1.10;99.90;;;;;;5070568;28;20045;-62
2021/12/06 04:02:21;;;;;;;18.20;7.65;;;1.10;99.90;;;;;;5070741;28;20043;-69
2021/12/06 04:04:49;;;;;;;25.48;10.90;;;1.10;99.90;;;;;;5070570;28;20048;-69
2021/12/06 04:07:18;;;;;;;19.27;8.80;;;1.20;99.90;;;;;;5070252;28;20503;-65
2021/12/06 04:09:46;;;;;;;28.88;10.20;;;1.20;99.90;;;;;;5070621;28;20067;-69
2021/12/06 04:12:15;;;;;;;31.85;9.65;;;1.20;99.90;;;;;;5050103;28;20052;-66
2021/12/06 04:14:44;;;;;;;28.08;9.57;;;1.30;99.90;;;;;;5066967;28;20051;-73
2021/12/06 04:17:13;;;;;;;28.00;9.32;;;1.30;99.90;;;;;;5070287;28;20049;-68
2021/12/06 04:19:43;;;;;;;25.63;10.50;;;1.30;99.90;;;;;;5069996;28;20049;-70
2021/12/06 04:22:12;;;;;;;34.85;9.80;;;1.30;99.90;;;;;;5070521;28;20048;-72
2021/12/06 04:24:41;;;;;;;28.40;10.50;;;1.40;99.90;;;;;;5053691;28;20044;-69
2021/12/06 04:27:14;;;;;;;18.88;9.35;;;1.40;99.90;;;;;;5070379;28;20488;-70
2021/12/06 04:29:47;;;;;;;29.17;9.68;;;1.40;99.90;;;;;;5069852;28;20045;-70
2021/12/06 04:32:18;;;;;;;23.13;10.13;;;1.40;99.90;;;;;;5069744;28;20056;-70
2021/12/06 04:34:46;;;;;;;30.75;10.82;;;1.40;99.90;;;;;;5070350;28;20044;-70
2021/12/06 04:37:15;;;;;;;26.58;11.93;;;1.40;99.90;;;;;;5070387;28;20044;-71
2021/12/06 04:39:44;;;;;;;27.20;10.70;;;1.50;99.90;;;;;;5103091;28;20052;-69
2021/12/06 04:42:12;;;;;;;25.05;10.73;;;1.50;99.90;;;;;;5069769;28;20420;-69
2021/12/06 04:44:40;;;;;;;26.90;10.43;;;1.50;99.90;;;;;;5071434;28;20044;-69
2021/12/06 04:47:08;;;;;;;24.77;9.65;;;1.50;99.90;;;;;;5070250;28;20052;-67
2021/12/06 04:49:37;;;;;;;26.40;9.20;;;1.50;99.90;;;;;;5070656;28;20053;-66
2021/12/06 04:52:09;;;;;;;18.48;9.13;;;1.50;99.90;;;;;;5072970;28;20048;-71
2021/12/06 04:54:41;;;;;;;30.20;8.93;;;1.50;99.90;;;;;;5074163;28;20510;-70
2021/12/06 04:57:17;;;;;;;24.25;9.45;;;1.60;99.90;;;;;;5074126;28;20532;-70
2021/12/06 04:59:52;;;;;;;25.75;9.23;;;1.60;99.90;;;;;;5075495;28;20044;-66
2021/12/06 05:02:29;;;;;;;22.35;9.32;;;1.60;99.90;;;;;;5057370;28;20404;-64
2021/12/06 05:05:12;;;;;;;26.58;8.65;;;1.60;99.90;;;;;;5071982;28;20399;-63
2021/12/06 05:07:45;;;;;;;24.10;9.32;;;1.60;99.90;;;;;;5073775;28;20487;-62
2021/12/06 05:10:16;;;;;;;24.27;7.97;;;1.70;99.90;;;;;;5073706;28;20051;-62
2021/12/06 05:12:47;;;;;;;17.58;8.15;;;1.70;99.90;;;;;;5073776;28;20059;-62
2021/12/06 05:15:16;;;;;;;25.30;9.00;;;1.70;99.90;;;;;;5074065;28;20044;-63
2021/12/06 05:17:44;;;;;;;18.90;7.90;;;1.70;99.90;;;;;;5073365;28;20048;-62
2021/12/06 05:20:15;;;;;;;19.70;8.20;;;1.70;99.90;;;;;;5073635;28;20036;-64
2021/12/06 05:22:46;;;;;;;18.17;8.13;;;1.70;99.90;;;;;;5073508;28;20048;-63
2021/12/06 05:25:14;;;;;;;20.73;7.80;;;1.70;99.90;;;;;;5073420;28;20036;-63
2021/12/06 05:27:43;;;;;;;19.63;8.23;;;1.70;99.90;;;;;;5056903;28;20052;-63
2021/12/06 05:30:13;;;;;;;25.05;8.40;;;1.70;99.90;;;;;;5073506;28;20507;-62
2021/12/06 05:32:42;;;;;;;17.25;7.65;;;1.70;99.90;;;;;;5056163;28;20055;-61
2021/12/06 05:35:13;;;;;;;21.42;7.05;;;1.80;99.90;;;;;;5073499;28;20048;-62
2021/12/06 05:37:48;;;;;;;23.83;7.55;;;1.70;99.90;;;;;;5074479;28;20056;-62
2021/12/06 05:40:19;;;;;;;20.92;7.13;;;1.80;99.90;;;;;;5074205;28;20052;-63
2021/12/06 05:42:47;;;;;;;20.88;6.85;;;1.80;99.90;;;;;;5074453;28;20055;-62
2021/12/06 05:45:17;;;;;;;17.35;7.05;;;1.80;99.90;;;;;;5074215;28;20048;-62
2021/12/06 05:47:45;;;;;;;;;;;1.80;99.90;;;;;;5064892;28;20060;-62
2021/12/06 05:50:14;;;;;;;19.05;6.97;;;1.80;99.90;;;;;;5050951;28;19925;-63
2021/12/06 05:52:43;;;;;;;18.85;7.53;;;1.80;99.90;;;;;;5051298;28;20049;-64
2021/12/06 05:55:11;;;;;;;16.58;7.10;;;1.90;99.90;;;;;;5049998;28;20045;-62
2021/12/06 05:57:44;;;;;;;21.75;7.68;;;1.90;99.90;;;;;;5057279;28;20432;-62
2021/12/06 06:00:16;;;;;;;17.77;7.07;;;1.90;99.90;;;;;;5070962;28;20063;-62
2021/12/06 06:02:46;;;;;;;17.55;7.20;;;1.90;99.90;;;;;;5056855;28;20048;-69
2021/12/06 06:05:15;;;;;;;35.85;7.65;;;1.80;99.90;;;;;;5046586;28;20049;-64
2021/12/06 06:07:43;;;;;;;18.67;7.33;;;1.90;99.90;;;;;;5053478;28;20044;-62
2021/12/06 06:10:12;;;;;;;23.53;7.17;;;1.80;99.90;;;;;;5067144;28;20305;-63
2021/12/06 06:12:40;;;;;;;20.60;7.40;;;1.90;99.90;;;;;;5069673;28;20757;-69
2021/12/06 06:15:09;;;;;;;19.08;5.72;;;1.90;99.90;;;;;;5070749;28;20480;-63
2021/12/06 06:17:47;;;;;;;12.95;3.83;;;1.90;99.90;;;;;;5063379;28;20801;-63
2021/12/06 06:20:26;;;;;;;16.38;4.05;;;1.90;99.90;;;;;;5046008;28;20041;-62
2021/12/06 06:22:54;;;;;;;9.15;3.67;;;2.00;99.90;;;;;;5056732;28;20515;-62
2021/12/06 06:25:23;;;;;;;18.10;4.05;;;2.00;99.90;;;;;;5066759;28;20411;-64
2021/12/06 06:27:51;;;;;;;7.65;4.15;;;2.10;99.90;;;;;;5068163;28;20037;-63
2021/12/06 06:30:19;;;;;;;14.65;3.28;;;2.10;99.90;;;;;;5070088;28;20056;-63
2021/12/06 06:32:47;;;;;;;20.80;4.03;;;2.20;99.90;;;;;;5066480;28;22252;-63
2021/12/06 06:35:16;;;;;;;12.77;3.45;;;2.20;99.90;;;;;;5050066;28;20045;-63
2021/12/06 06:37:45;;;;;;;7.32;2.83;;;2.30;99.90;;;;;;5056463;28;20047;-63
2021/12/06 06:40:13;;;;;;;10.15;2.50;;;2.30;99.90;;;;;;5069854;28;20068;-62
2021/12/06 06:42:45;;;;;;;16.05;3.88;;;2.30;99.90;;;;;;5069245;28;20040;-62
2021/12/06 06:45:17;;;;;;;16.47;3.47;;;2.40;99.90;;;;;;5065516;28;20055;-62
2021/12/06 06:47:46;;;;;;;16.70;4.85;;;2.40;99.90;;;;;;5063551;28;20059;-63
2021/12/06 06:50:15;;;;;;;11.00;2.78;;;2.40;99.90;;;;;;5065807;28;20048;-65
2021/12/06 06:52:44;;;;;;;7.93;2.53;;;2.40;99.90;;;;;;5069325;28;20412;-64
2021/12/06 06:55:12;;;;;;;9.57;3.00;;;2.40;99.90;;;;;;5069682;28;20387;-62
2021/12/06 06:57:41;;;;;;;8.15;2.72;;;2.50;99.90;;;;;;5069006;28;20045;-63
2021/12/06 07:00:12;;;;;;;9.77;3.65;;;2.50;99.90;;;;;;5066138;28;20135;-64
2021/12/06 07:02:41;;;;;;;16.05;3.38;;;2.50;99.90;;;;;;5065885;28;20365;-63
2021/12/06 07:05:09;;;;;;;10.35;3.13;;;2.50;99.90;;;;;;5046211;28;20203;-61
2021/12/06 07:07:38;;;;;;;17.98;3.33;;;2.50;99.90;;;;;;5054033;28;20051;-62
2021/12/06 07:10:07;;;;;;;11.10;3.20;;;2.60;99.90;;;;;;5069231;28;20507;-63
2021/12/06 07:12:43;;;;;;;;;;;2.60;99.90;;;;;;5060326;28;20484;-63
2021/12/06 07:15:13;;;;;;;12.15;4.13;;;2.60;99.90;;;;;;5068768;28;19920;-63
2021/12/06 07:17:42;;;;;;;15.05;3.17;;;2.60;99.90;;;;;;5067965;28;20041;-64
2021/12/06 07:20:13;;;;;;;14.32;2.95;;;2.60;99.90;;;;;;5049560;28;20480;-65
2021/12/06 07:22:52;;;;;;;13.07;3.70;;;2.60;99.90;;;;;;5055440;28;20071;-62
2021/12/06 07:25:27;;;;;;;12.05;6.35;;;2.70;99.90;;;;;;5069221;28;20045;-62
2021/12/06 07:27:57;;;;;;;14.57;3.95;;;2.70;99.90;;;;;;5067383;28;20044;-64
2021/12/06 07:30:28;;;;;;;24.42;3.45;;;2.70;99.90;;;;;;5065504;28;20044;-63
2021/12/06 07:32:59;;;;;;;14.85;3.75;;;2.70;99.90;;;;;;5065309;28;20055;-65
2021/12/06 07:35:29;;;;;;;15.70;3.42;;;2.70;99.90;;;;;;5065272;28;20439;-64
2021/12/06 07:38:07;;;;;;;14.40;4.32;;;2.70;99.90;;;;;;5053300;28;20051;-63
2021/12/06 07:40:35;;;;;;;9.07;3.80;;;2.70;99.90;;;;;;5067281;28;20048;-63
2021/12/06 07:43:04;;;;;;;17.38;3.17;;;2.70;99.90;;;;;;5068381;28;20044;-63
2021/12/06 07:45:32;;;;;;;9.38;3.00;;;2.80;99.90;;;;;;5068937;28;20044;-65
2021/12/06 07:48:03;;;;;;;14.23;4.07;;;2.80;99.90;;;;;;5068589;28;20506;-63
2021/12/06 07:50:33;;;;;;;9.73;2.72;;;2.80;99.90;;;;;;5048548;28;20052;-64
2021/12/06 07:53:01;;;;;;;10.13;2.55;;;2.80;99.90;;;;;;5055672;28;20037;-63
2021/12/06 07:55:33;;;;;;;10.90;3.42;;;2.70;99.90;;;;;;5065076;28;20491;-64
2021/12/06 07:58:06;;;;;;;9.85;2.95;;;2.80;99.90;;;;;;5068402;28;20051;-65
2021/12/06 08:00:36;;;;;;;11.30;3.15;;;2.80;99.90;;;;;;5068778;28;20048;-65
2021/12/06 08:03:07;;;;;;;13.63;2.67;;;2.80;99.90;;;;;;5064946;28;20048;-65
2021/12/06 08:05:38;;;;;;;14.70;2.95;;;2.80;99.90;;;;;;5061363;28;20045;-64
2021/12/06 08:08:12;;;;;;;10.10;3.03;;;2.80;99.90;;;;;;5066194;28;20408;-63
2021/12/06 08:10:44;;;;;;;11.88;2.92;;;2.80;99.90;;;;;;5068146;28;20144;-62
2021/12/06 08:13:14;;;;;;;9.02;2.78;;;2.80;99.90;;;;;;5067944;28;20071;-63
2021/12/06 08:15:43;;;;;;;10.50;2.90;;;2.80;99.90;;;;;;5068417;28;20041;-63
2021/12/06 08:18:11;;;;;;;16.52;2.80;;;2.80;99.90;;;;;;5066647;28;20057;-63
2021/12/06 08:20:41;;;;;;;21.15;3.20;;;2.80;99.90;;;;;;5066625;28;20488;-64
2021/12/06 08:23:09;;;;;;;7.65;2.67;;;2.90;99.90;;;;;;5066263;28;20454;-65
2021/12/06 08:25:37;;;;;;;11.63;3.15;;;2.80;99.90;;;;;;5067407;28;20048;-63
2021/12/06 08:28:05;;;;;;;12.85;2.45;;;2.80;99.90;;;;;;5068008;28;20052;-66
2021/12/06 08:30:34;;;;;;;5.75;2.38;;;2.90;99.90;;;;;;5068073;28;20272;-64
2021/12/06 08:33:05;;;;;;;8.93;2.70;;;2.90;99.90;;;;;;5067734;28;20407;-63
2021/12/06 08:35:36;;;;;;;12.10;2.58;;;2.90;99.90;;;;;;5066288;28;20507;-63
2021/12/06 08:38:04;;;;;;;9.02;2.70;;;2.90;99.90;;;;;;5068141;28;20036;-64
2021/12/06 08:40:32;;;;;;;11.30;2.80;;;2.90;99.90;;;;;;5067990;28;20045;-64
2021/12/06 08:43:01;;;;;;;7.63;2.33;;;3.00;99.90;;;;;;5067503;28;20056;-63
2021/12/06 08:45:30;;;;;;;7.63;2.97;;;3.00;99.90;;;;;;5067959;28;20678;-63
2021/12/06 08:47:59;;;;;;;13.25;3.55;;;3.00;99.90;;;;;;5067501;28;20040;-63
2021/12/06 08:50:29;;;;;;;9.65;3.30;;;3.00;99.90;;;;;;5062579;28;20056;-63
2021/12/06 08:52:57;;;;;;;10.52;2.95;;;3.00;99.90;;;;;;5055966;28;20041;-62
2021/12/06 08:55:25;;;;;;;11.38;3.38;;;3.10;99.90;;;;;;5067553;28;20052;-63
2021/12/06 08:57:55;;;;;;;8.65;3.47;;;3.10;99.90;;;;;;5067590;28;20048;-62
2021/12/06 09:00:28;;;;;;;8.90;3.47;;;3.10;99.90;;;;;;5065749;28;20063;-63
2021/12/06 09:02:56;;;;;;;6.30;2.97;;;3.20;99.90;;;;;;5064670;28;20037;-63
2021/12/06 09:05:30;;;;;;;11.30;3.28;;;3.20;99.90;;;;;;5052306;28;20056;-63
2021/12/06 09:07:57;;;;;;;11.82;3.65;;;3.20;99.90;;;;;;5056257;28;20408;-62
2021/12/06 09:10:26;;;;;;;8.88;3.25;;;3.30;99.90;;;;;;5066847;28;20044;-63
2021/12/06 09:12:56;;;;;;;12.27;3.40;;;3.30;99.90;;;;;;5066873;28;20048;-61
2021/12/06 09:15:25;;;;;;;17.80;3.85;;;3.30;99.90;;;;;;5065746;28;20397;-62
2021/12/06 09:17:54;;;;;;;10.48;3.17;;;3.30;99.90;;;;;;5065749;28;20053;-61
2021/12/06 09:20:27;;;;;;;16.90;3.47;;;3.30;99.90;;;;;;5053922;28;20060;-61
2021/12/06 09:22:56;;;;;;;10.45;2.88;;;3.30;99.90;;;;;;5056005;28;20403;-61
2021/12/06 09:25:24;;;;;;;12.75;3.38;;;3.30;99.90;;;;;;5067487;28;20059;-62
2021/12/06 09:27:52;;;;;;;10.90;3.65;;;3.30;99.90;;;;;;5065865;28;20044;-61
2021/12/06 09:30:24;;;;;;;8.23;3.25;;;3.30;99.90;;;;;;5067433;28;20435;-62
2021/12/06 09:32:52;;;;;;;9.45;3.67;;;3.30;99.90;;;;;;5067584;28;20053;-62
2021/12/06 09:35:25;;;;;;;10.27;3.28;;;3.30;99.90;;;;;;5062035;28;20216;-62
2021/12/06 09:37:55;;;;;;;20.25;4.53;;;3.30;99.90;;;;;;5056205;28;20036;-62
2021/12/06 09:40:23;;;;;;;11.18;3.90;;;3.30;99.90;;;;;;5071060;28;20427;-61
2021/12/06 09:42:52;;;;;;;12.27;3.88;;;3.30;99.90;;;;;;5070605;28;20063;-62
2021/12/06 09:45:26;;;;;;;8.20;3.25;;;3.20;99.90;;;;;;5053555;28;20060;-60
2021/12/06 09:47:55;;;;;;;6.50;3.30;;;3.30;99.90;;;;;;5069937;28;20036;-62
2021/12/06 09:50:27;;;;;;;8.95;3.40;;;3.20;99.90;;;;;;5057986;28;20060;-62
2021/12/06 09:52:58;;;;;;;7.07;3.60;;;3.20;99.90;;;;;;5069004;28;20477;-62
2021/12/06 09:55:27;;;;;;;12.68;4.63;;;3.20;99.90;;;;;;5070501;28;20481;-62
2021/12/06 09:57:54;;;;;;;9.45;4.50;;;3.20;99.90;;;;;;5069133;28;20337;-61
2021/12/06 10:00:25;;;;;;;18.25;6.63;;;3.20;99.90;;;;;;5070022;28;20044;-63
2021/12/06 10:02:54;;;;;;;17.55;8.95;;;3.20;99.90;;;;;;5068276;28;20044;-62
2021/12/06 10:05:26;;;;;;;14.73;6.95;;;3.20;99.90;;;;;;5060052;28;20049;-63
2021/12/06 10:07:56;;;;;;;12.98;5.25;;;3.20;99.90;;;;;;5067113;28;20467;-62
2021/12/06 10:10:25;;;;;;;9.52;5.15;;;3.10;99.90;;;;;;5070074;28;20037;-63
2021/12/06 10:12:54;;;;;;;6.90;3.38;;;3.10;99.90;;;;;;5068936;28;20045;-62
2021/12/06 10:15:28;;;;;;;5.93;3.10;;;3.20;99.90;;;;;;5070136;28;20041;-61
2021/12/06 10:17:59;;;;;;;13.77;3.58;;;3.20;99.90;;;;;;5068429;28;20373;-61
2021/12/06 10:20:30;;;;;;;6.13;2.78;;;3.10;99.90;;;;;;5053093;28;20064;-60
2021/12/06 10:22:58;;;;;;;8.85;3.25;;;3.20;99.90;;;;;;5059207;28;20052;-62
2021/12/06 10:25:39;;;;;;;6.25;2.22;;;3.10;99.90;;;;;;5070067;28;20399;-63
2021/12/06 10:28:14;;;;;;;7.72;2.47;;;3.10;99.90;;;;;;5069965;28;20039;-64
2021/12/06 10:30:44;;;;;;;;;;;3.10;99.90;;;;;;5070942;28;20040;-62
2021/12/06 10:33:15;;;;;;;3.58;2.05;;;3.00;99.90;;;;;;5069747;28;19920;-61
2021/12/06 10:35:49;;;;;;;6.55;2.05;;;3.00;99.90;;;;;;5058392;28;20053;-60
2021/12/06 10:38:28;;;;;;;7.72;1.60;;;2.90;99.90;;;;;;5069076;28;20053;-60
2021/12/06 10:41:09;;;;;;;9.20;2.08;;;2.80;99.90;;;;;;5069920;28;20041;-59
2021/12/06 10:43:39;;;;;;;5.63;2.20;;;2.70;99.90;;;;;;5069863;28;20048;-61
2021/12/06 10:46:08;;;;;;;7.03;3.05;;;2.70;99.90;;;;;;5070283;28;20435;-60
2021/12/06 10:48:38;;;;;;;7.13;2.33;;;2.70;99.90;;;;;;5068078;28;20036;-61
2021/12/06 10:51:14;;;;;;;4.63;2.15;;;2.70;99.90;;;;;;5056051;28;20389;-60
2021/12/06 10:53:58;;;;;;;8.25;1.58;;;2.70;99.90;;;;;;5066889;28;20048;-60
2021/12/06 10:56:42;;;;;;;6.38;2.10;;;2.60;99.90;;;;;;5069581;28;20048;-61
2021/12/06 10:59:12;;;;;;;4.90;1.67;;;2.60;99.90;;;;;;5068027;28;20381;-60
2021/12/06 11:01:40;;;;;;;4.10;1.30;;;2.60;99.90;;;;;;5069587;28;20063;-61
2021/12/06 11:04:11;;;;;;;4.68;1.30;;;2.60;99.90;;;;;;5069144;28;20708;-61
2021/12/06 11:06:44;;;;;;;8.50;1.50;;;2.70;99.90;;;;;;5067296;28;20492;-62
2021/12/06 11:09:19;;;;;;;2.58;0.90;;;2.70;99.90;;;;;;5069103;28;20055;-61
2021/12/06 11:11:51;;;;;;;1.67;0.90;;;2.70;99.90;;;;;;5067509;28;20052;-61
2021/12/06 11:14:23;;;;;;;2.63;0.82;;;2.60;99.90;;;;;;5068861;28;20052;-61
2021/12/06 11:16:58;;;;;;;1.65;0.68;;;2.60;99.90;;;;;;5069035;28;20044;-61
2021/12/06 11:19:31;;;;;;;3.72;0.95;;;2.50;99.90;;;;;;5068617;28;20040;-61
2021/12/06 11:22:04;;;;;;;3.00;1.45;;;2.60;99.90;;;;;;5050595;28;20057;-60
2021/12/06 11:24:48;;;;;;;6.18;1.65;;;2.50;99.90;;;;;;5068967;28;20052;-61
2021/12/06 11:27:20;;;;;;;5.53;1.50;;;2.50;99.90;;;;;;5069173;28;20041;-61
2021/12/06 11:29:52;;;;;;;5.35;1.45;;;2.50;99.90;;;;;;5068534;28;20044;-60
2021/12/06 11:32:23;;;;;;;8.35;2.20;;;2.50;99.90;;;;;;5050904;28;20044;-60
2021/12/06 11:35:16;;;;;;;7.45;1.90;;;2.50;99.90;;;;;;5068052;28;20063;-61
2021/12/06 11:37:50;;;;;;;6.68;2.13;;;2.50;99.90;;;;;;5066118;28;20045;-59
2021/12/06 11:40:23;;;;;;;4.25;1.50;;;2.50;99.90;;;;;;5068992;28;20049;-60
2021/12/06 11:42:50;;;;;;;8.60;1.67;;;2.50;99.90;;;;;;5068362;28;20051;-60
2021/12/06 11:45:48;;;;;;;3.78;1.60;;;2.50;99.90;;;;;;5068835;28;20471;-60
2021/12/06 11:48:17;;;;;;;6.15;1.70;;;2.50;99.90;;;;;;5058408;28;20064;-61
2021/12/06 11:51:04;;;;;;;2.70;1.50;;;2.50;99.90;;;;;;5064172;28;20059;-60
2021/12/06 11:53:36;;;;;;;3.55;1.52;;;2.60;99.90;;;;;;5068181;28;20298;-61
2021/12/06 11:56:12;;;;;;;3.75;1.48;;;2.60;99.90;;;;;;5067080;28;20446;-61
2021/12/06 11:58:44;;;;;;;5.03;1.75;;;2.60;99.90;;;;;;5066402;28;20047;-62
2021/12/06 12:01:34;;;;;;;5.63;2.10;;;2.60;99.90;;;;;;5068150;28;20052;-61
2021/12/06 12:04:05;;;;;;;4.50;2.13;;;2.60;99.90;;;;;;5067739;28;20063;-64
2021/12/06 12:06:39;;;;;;;4.85;1.90;;;2.70;99.90;;;;;;5066406;28;20531;-61
2021/12/06 12:09:22;;;;;;;4.47;2.00;;;2.70;99.90;;;;;;5067624;28;20048;-61
2021/12/06 12:12:09;;;;;;;3.97;1.83;;;2.70;99.90;;;;;;5066386;28;20063;-61
2021/12/06 12:14:54;;;;;;;2.88;1.90;;;2.70;99.90;;;;;;5067600;28;20052;-61
2021/12/06 12:17:26;;;;;;;3.17;2.10;;;2.70;99.90;;;;;;5067488;28;20044;-64
2021/12/06 12:20:04;;;;;;;3.45;2.10;;;2.70;99.90;;;;;;5067601;28;20127;-64
2021/12/06 12:22:33;;;;;;;7.65;2.60;;;2.80;99.90;;;;;;5053487;28;20400;-61
2021/12/06 12:25:08;;;;;;;6.15;2.42;;;2.80;99.90;;;;;;5067777;28;20370;-65
2021/12/06 12:27:56;;;;;;;7.50;3.20;;;2.90;99.90;;;;;;5066399;28;20491;-61
2021/12/06 12:30:26;;;;;;;4.85;2.83;;;3.00;99.90;;;;;;5067889;28;20048;-63
2021/12/06 12:32:56;;;;;;;7.13;3.42;;;3.00;99.90;;;;;;5066306;28;20063;-64
2021/12/06 12:35:25;;;;;;;4.55;2.35;;;3.10;99.90;;;;;;5048211;28;20415;-64
2021/12/06 12:37:54;;;;;;;6.75;4.00;;;3.10;99.90;;;;;;5053685;28;20520;-63
2021/12/06 12:40:25;;;;;;;17.25;5.95;;;3.20;99.90;;;;;;5068188;28;20511;-61
2021/12/06 12:43:02;;;;;;;7.97;4.63;;;3.20;99.90;;;;;;5067248;28;20397;-61
2021/12/06 12:45:39;;;;;;;7.20;3.95;;;3.30;99.90;;;;;;5067970;28;20531;-64
2021/12/06 12:48:08;;;;;;;9.27;2.97;;;3.40;99.90;;;;;;5067327;28;20056;-63
2021/12/06 12:50:36;;;;;;;4.15;2.88;;;3.70;99.90;;;;;;5065801;28;20365;-69
2021/12/06 12:53:17;;;;;;;6.57;3.60;;;4.00;99.90;;;;;;5066048;28;20048;-68
2021/12/06 12:55:49;;;;;;;5.53;3.60;;;4.60;99.90;;;;;;5067295;28;20511;-69
2021/12/06 12:58:26;;;;;;;4.07;2.05;;;5.40;99.90;;;;;;5065903;28;20040;-67
2021/12/06 13:01:03;;;;;;;2.33;1.40;;;6.10;99.90;;;;;;5067660;28;20500;-58
2021/12/06 13:03:52;;;;;;;2.95;1.30;;;6.60;99.90;;;;;;5067111;28;20040;-61
2021/12/06 13:06:36;;;;;;;2.35;1.30;;;6.80;99.90;;;;;;5047780;28;20037;-58
2021/12/06 13:09:17;;;;;;;3.40;2.00;;;6.70;99.90;;;;;;5063131;28;20049;-60
2021/12/06 13:12:05;;;;;;;2.40;1.58;;;6.50;99.90;;;;;;5068085;28;20081;-61
2021/12/06 13:14:51;;;;;;;3.28;1.30;;;6.30;99.90;;;;;;5060869;28;20053;-69
2021/12/06 13:17:55;;;;;;;4.60;1.50;;;6.30;99.90;;;;;;5055538;28;20037;-60
2021/12/06 13:20:21;;;;;;;2.67;1.70;;;6.20;99.90;;;;;;5067307;28;20365;-61
2021/12/06 13:22:54;;;;;;;2.00;1.80;;;6.10;99.90;;;;;;5064769;28;20483;-60
2021/12/06 13:25:27;;;;;;;2.72;2.22;;;6.10;99.90;;;;;;5070796;28;20492;-61
2021/12/06 13:28:05;;;;;;;2.70;1.90;;;6.10;99.90;;;;;;5070854;28;20397;-60
2021/12/06 13:30:48;;;;;;;3.75;1.75;;;6.10;99.90;;;;;;5071216;28;20264;-60
2021/12/06 13:33:18;;;;;;;6.05;2.22;;;6.20;99.90;;;;;;5070787;28;20059;-61
2021/12/06 13:35:52;;;;;;;;;;;6.40;99.90;;;;;;5069390;28;20396;-63